sensor_id;sensor_type;location;lat;lon;timestamp;temperature;humidity
34201;DHT22;20469;55.638;37.670;2022-12-13T00:01:46;1.90;99.90
34201;DHT22;20469;55.638;37.670;2022-12-13T00:04:14;1.90;99.90
34201;DHT22;20469;55.638;37.670;2022-12-13T00:06:42;1.80;99.90
34201;DHT22;20469;55.638;37.670;2022-12-13T00:09:12;1.90;99.90
34201;DHT22;20469;55.638;37.670;2022-12-13T00:11:40;1.90;99.90
34201;DHT22;20469;55.638;37.670;2022-12-13T00:14:11;1.90;99.90
34201;DHT22;20469;55.638;37.670;2022-12-13T00:16:43;2.00;99.90
34201;DHT22;20469;55.638;37.670;2022-12-13T00:19:11;2.00;99.90
34201;DHT22;20469;55.638;37.670;2022-12-13T00:21:40;2.00;99.90
34201;DHT22;20469;55.638;37.670;2022-12-13T00:24:07;2.00;99.90
34201;DHT22;20469;55.638;37.670;2022-12-13T00:26:35;2.10;99.90
34201;DHT22;20469;55.638;37.670;2022-12-13T00:29:05;2.00;99.90
34201;DHT22;20469;55.638;37.670;2022-12-13T00:31:33;2.10;99.90
34201;DHT22;20469;55.638;37.670;2022-12-13T00:34:21;2.10;99.90
34201;DHT22;20469;55.638;37.670;2022-12-13T00:36:49;2.00;99.90
34201;DHT22;20469;55.638;37.670;2022-12-13T00:39:17;2.10;99.90
34201;DHT22;20469;55.638;37.670;2022-12-13T00:41:45;2.00;99.90
34201;DHT22;20469;55.638;37.670;2022-12-13T00:44:13;2.00;99.90
34201;DHT22;20469;55.638;37.670;2022-12-13T00:46:42;2.20;99.90
34201;DHT22;20469;55.638;37.670;2022-12-13T00:49:10;2.20;99.90
34201;DHT22;20469;55.638;37.670;2022-12-13T00:51:38;2.10;99.90
34201;DHT22;20469;55.638;37.670;2022-12-13T00:54:06;2.00;99.90
34201;DHT22;20469;55.638;37.670;2022-12-13T00:56:34;2.10;99.90
34201;DHT22;20469;55.638;37.670;2022-12-13T00:59:03;2.00;99.90
34201;DHT22;20469;55.638;37.670;2022-12-13T01:01:32;2.00;99.90
34201;DHT22;20469;55.638;37.670;2022-12-13T01:04:01;2.00;99.90
34201;DHT22;20469;55.638;37.670;2022-12-13T01:06:35;2.00;99.90
34201;DHT22;20469;55.638;37.670;2022-12-13T01:09:04;2.10;99.90
34201;DHT22;20469;55.638;37.670;2022-12-13T01:11:33;2.10;99.90
34201;DHT22;20469;55.638;37.670;2022-12-13T01:14:00;2.10;99.90
34201;DHT22;20469;55.638;37.670;2022-12-13T01:16:28;2.00;99.90
34201;DHT22;20469;55.638;37.670;2022-12-13T01:18:57;2.10;99.90
34201;DHT22;20469;55.638;37.670;2022-12-13T01:21:27;2.10;99.90
34201;DHT22;20469;55.638;37.670;2022-12-13T01:24:00;2.10;99.90
34201;DHT22;20469;55.638;37.670;2022-12-13T01:26:41;2.10;99.90
34201;DHT22;20469;55.638;37.670;2022-12-13T01:29:08;2.20;99.90
34201;DHT22;20469;55.638;37.670;2022-12-13T01:31:37;2.10;99.90
34201;DHT22;20469;55.638;37.670;2022-12-13T01:34:10;2.40;99.90
34201;DHT22;20469;55.638;37.670;2022-12-13T01:36:39;2.10;99.90
34201;DHT22;20469;55.638;37.670;2022-12-13T01:39:09;2.10;99.90
34201;DHT22;20469;55.638;37.670;2022-12-13T01:41:43;2.10;99.90
34201;DHT22;20469;55.638;37.670;2022-12-13T01:47:09;2.20;99.90
34201;DHT22;20469;55.638;37.670;2022-12-13T01:49:37;2.20;99.90
34201;DHT22;20469;55.638;37.670;2022-12-13T01:52:06;2.20;99.90
34201;DHT22;20469;55.638;37.670;2022-12-13T01:54:40;2.20;99.90
34201;DHT22;20469;55.638;37.670;2022-12-13T01:57:14;2.20;99.90
34201;DHT22;20469;55.638;37.670;2022-12-13T01:59:44;2.30;99.90
34201;DHT22;20469;55.638;37.670;2022-12-13T02:02:13;2.30;99.90
34201;DHT22;20469;55.638;37.670;2022-12-13T02:05:06;2.20;99.90
34201;DHT22;20469;55.638;37.670;2022-12-13T02:07:36;2.20;99.90
34201;DHT22;20469;55.638;37.670;2022-12-13T02:10:06;2.20;99.90
34201;DHT22;20469;55.638;37.670;2022-12-13T02:12:36;2.30;99.90
34201;DHT22;20469;55.638;37.670;2022-12-13T02:15:07;2.20;99.90
34201;DHT22;20469;55.638;37.670;2022-12-13T02:26:44;2.20;99.90
34201;DHT22;20469;55.638;37.670;2022-12-13T02:32:03;2.20;99.90
34201;DHT22;20469;55.638;37.670;2022-12-13T02:34:39;2.20;99.90
34201;DHT22;20469;55.638;37.670;2022-12-13T02:37:17;2.20;99.90
34201;DHT22;20469;55.638;37.670;2022-12-13T02:39:50;2.20;99.90
34201;DHT22;20469;55.638;37.670;2022-12-13T02:42:25;2.20;99.90
34201;DHT22;20469;55.638;37.670;2022-12-13T02:45:02;2.20;99.90
34201;DHT22;20469;55.638;37.670;2022-12-13T02:47:33;2.20;99.90
34201;DHT22;20469;55.638;37.670;2022-12-13T02:50:03;2.10;99.90
34201;DHT22;20469;55.638;37.670;2022-12-13T02:52:32;2.10;99.90
34201;DHT22;20469;55.638;37.670;2022-12-13T02:55:06;2.20;99.90
34201;DHT22;20469;55.638;37.670;2022-12-13T02:57:37;2.10;99.90
34201;DHT22;20469;55.638;37.670;2022-12-13T03:00:12;2.10;99.90
34201;DHT22;20469;55.638;37.670;2022-12-13T03:05:58;2.20;99.90
34201;DHT22;20469;55.638;37.670;2022-12-13T03:17:44;1.90;99.90
34201;DHT22;20469;55.638;37.670;2022-12-13T03:20:17;1.90;99.90
34201;DHT22;20469;55.638;37.670;2022-12-13T03:22:50;1.90;99.90
34201;DHT22;20469;55.638;37.670;2022-12-13T03:25:19;1.90;99.90
34201;DHT22;20469;55.638;37.670;2022-12-13T03:28:00;2.00;99.90
34201;DHT22;20469;55.638;37.670;2022-12-13T03:30:31;2.00;99.90
34201;DHT22;20469;55.638;37.670;2022-12-13T03:35:53;1.90;99.90
34201;DHT22;20469;55.638;37.670;2022-12-13T03:38:20;1.90;99.90
34201;DHT22;20469;55.638;37.670;2022-12-13T03:40:51;2.00;99.90
34201;DHT22;20469;55.638;37.670;2022-12-13T03:43:20;2.00;99.90
34201;DHT22;20469;55.638;37.670;2022-12-13T03:45:51;2.10;99.90
34201;DHT22;20469;55.638;37.670;2022-12-13T03:48:19;1.90;99.90
34201;DHT22;20469;55.638;37.670;2022-12-13T03:50:51;1.90;99.90
34201;DHT22;20469;55.638;37.670;2022-12-13T03:53:19;2.00;99.90
34201;DHT22;20469;55.638;37.670;2022-12-13T03:56:02;2.00;99.90
34201;DHT22;20469;55.638;37.670;2022-12-13T03:58:30;2.10;99.90
34201;DHT22;20469;55.638;37.670;2022-12-13T04:01:08;2.00;99.90
34201;DHT22;20469;55.638;37.670;2022-12-13T04:03:36;2.00;99.90
34201;DHT22;20469;55.638;37.670;2022-12-13T04:06:04;2.00;99.90
34201;DHT22;20469;55.638;37.670;2022-12-13T04:08:33;2.00;99.90
34201;DHT22;20469;55.638;37.670;2022-12-13T04:11:02;2.00;99.90
34201;DHT22;20469;55.638;37.670;2022-12-13T04:13:44;2.10;99.90
34201;DHT22;20469;55.638;37.670;2022-12-13T04:16:12;2.00;99.90
34201;DHT22;20469;55.638;37.670;2022-12-13T04:18:40;2.10;99.90
34201;DHT22;20469;55.638;37.670;2022-12-13T04:21:07;2.10;99.90
34201;DHT22;20469;55.638;37.670;2022-12-13T04:23:35;2.10;99.90
34201;DHT22;20469;55.638;37.670;2022-12-13T04:26:02;2.20;99.90
34201;DHT22;20469;55.638;37.670;2022-12-13T04:28:30;2.20;99.90
34201;DHT22;20469;55.638;37.670;2022-12-13T04:30:57;2.10;99.90
34201;DHT22;20469;55.638;37.670;2022-12-13T04:33:27;2.20;99.90
34201;DHT22;20469;55.638;37.670;2022-12-13T04:35:55;2.20;99.90
34201;DHT22;20469;55.638;37.670;2022-12-13T04:38:22;2.20;99.90
34201;DHT22;20469;55.638;37.670;2022-12-13T04:40:50;2.20;99.90
34201;DHT22;20469;55.638;37.670;2022-12-13T04:43:17;2.20;99.90
34201;DHT22;20469;55.638;37.670;2022-12-13T04:45:45;2.10;99.90
34201;DHT22;20469;55.638;37.670;2022-12-13T04:48:12;2.20;99.90
34201;DHT22;20469;55.638;37.670;2022-12-13T04:50:58;2.10;99.90
34201;DHT22;20469;55.638;37.670;2022-12-13T04:53:28;2.20;99.90
34201;DHT22;20469;55.638;37.670;2022-12-13T04:55:56;2.20;99.90
34201;DHT22;20469;55.638;37.670;2022-12-13T04:58:24;2.20;99.90
34201;DHT22;20469;55.638;37.670;2022-12-13T05:00:51;2.20;99.90
34201;DHT22;20469;55.638;37.670;2022-12-13T05:03:20;2.20;99.90
34201;DHT22;20469;55.638;37.670;2022-12-13T05:05:48;2.30;99.90
34201;DHT22;20469;55.638;37.670;2022-12-13T05:08:15;2.30;99.90
34201;DHT22;20469;55.638;37.670;2022-12-13T05:10:43;2.30;99.90
34201;DHT22;20469;55.638;37.670;2022-12-13T05:13:10;2.20;99.90
34201;DHT22;20469;55.638;37.670;2022-12-13T05:15:38;2.30;99.90
34201;DHT22;20469;55.638;37.670;2022-12-13T05:18:06;2.30;99.90
34201;DHT22;20469;55.638;37.670;2022-12-13T05:20:38;2.30;99.90
34201;DHT22;20469;55.638;37.670;2022-12-13T05:23:06;2.30;99.90
34201;DHT22;20469;55.638;37.670;2022-12-13T05:25:33;2.30;99.90
34201;DHT22;20469;55.638;37.670;2022-12-13T05:28:04;2.30;99.90
34201;DHT22;20469;55.638;37.670;2022-12-13T05:30:52;2.30;99.90
34201;DHT22;20469;55.638;37.670;2022-12-13T05:33:20;3.20;99.90
34201;DHT22;20469;55.638;37.670;2022-12-13T05:35:48;2.40;99.90
34201;DHT22;20469;55.638;37.670;2022-12-13T05:38:15;2.40;99.90
34201;DHT22;20469;55.638;37.670;2022-12-13T05:40:44;2.40;99.90
34201;DHT22;20469;55.638;37.670;2022-12-13T05:43:11;2.40;99.90
34201;DHT22;20469;55.638;37.670;2022-12-13T05:45:49;2.40;99.90
34201;DHT22;20469;55.638;37.670;2022-12-13T05:48:16;2.40;99.90
34201;DHT22;20469;55.638;37.670;2022-12-13T05:50:51;2.40;99.90
34201;DHT22;20469;55.638;37.670;2022-12-13T05:53:39;2.40;99.90
34201;DHT22;20469;55.638;37.670;2022-12-13T05:56:08;2.40;99.90
34201;DHT22;20469;55.638;37.670;2022-12-13T05:58:37;2.40;99.90
34201;DHT22;20469;55.638;37.670;2022-12-13T06:01:08;2.40;99.90
34201;DHT22;20469;55.638;37.670;2022-12-13T06:03:36;2.40;99.90
34201;DHT22;20469;55.638;37.670;2022-12-13T06:06:05;2.40;99.90
34201;DHT22;20469;55.638;37.670;2022-12-13T06:11:16;2.40;99.90
34201;DHT22;20469;55.638;37.670;2022-12-13T06:13:58;2.40;99.90
34201;DHT22;20469;55.638;37.670;2022-12-13T06:16:27;2.50;99.90
34201;DHT22;20469;55.638;37.670;2022-12-13T06:18:55;2.40;99.90
34201;DHT22;20469;55.638;37.670;2022-12-13T06:21:31;2.60;99.90
34201;DHT22;20469;55.638;37.670;2022-12-13T06:24:26;2.50;99.90
34201;DHT22;20469;55.638;37.670;2022-12-13T06:26:54;2.50;99.90
34201;DHT22;20469;55.638;37.670;2022-12-13T06:29:22;2.50;99.90
34201;DHT22;20469;55.638;37.670;2022-12-13T06:31:54;2.50;99.90
34201;DHT22;20469;55.638;37.670;2022-12-13T06:34:31;2.50;99.90
34201;DHT22;20469;55.638;37.670;2022-12-13T06:37:00;2.50;99.90
34201;DHT22;20469;55.638;37.670;2022-12-13T06:39:29;2.50;99.90
34201;DHT22;20469;55.638;37.670;2022-12-13T06:42:00;2.50;99.90
34201;DHT22;20469;55.638;37.670;2022-12-13T06:44:28;2.50;99.90
34201;DHT22;20469;55.638;37.670;2022-12-13T06:46:55;2.60;99.90
34201;DHT22;20469;55.638;37.670;2022-12-13T06:49:39;2.50;99.90
34201;DHT22;20469;55.638;37.670;2022-12-13T06:52:10;2.50;99.90
34201;DHT22;20469;55.638;37.670;2022-12-13T06:54:40;2.60;99.90
34201;DHT22;20469;55.638;37.670;2022-12-13T06:57:08;2.60;99.90
34201;DHT22;20469;55.638;37.670;2022-12-13T06:59:36;2.60;99.90
34201;DHT22;20469;55.638;37.670;2022-12-13T07:02:03;2.60;99.90
34201;DHT22;20469;55.638;37.670;2022-12-13T07:04:34;2.70;99.90
34201;DHT22;20469;55.638;37.670;2022-12-13T07:07:01;2.70;99.90
34201;DHT22;20469;55.638;37.670;2022-12-13T07:09:30;2.70;99.90
34201;DHT22;20469;55.638;37.670;2022-12-13T07:11:58;2.70;99.90
34201;DHT22;20469;55.638;37.670;2022-12-13T07:14:26;2.80;99.90
34201;DHT22;20469;55.638;37.670;2022-12-13T07:16:53;2.90;99.90
34201;DHT22;20469;55.638;37.670;2022-12-13T07:19:30;2.80;99.90
34201;DHT22;20469;55.638;37.670;2022-12-13T07:22:03;2.80;99.90
34201;DHT22;20469;55.638;37.670;2022-12-13T07:24:34;2.80;99.90
34201;DHT22;20469;55.638;37.670;2022-12-13T07:27:02;2.90;99.90
34201;DHT22;20469;55.638;37.670;2022-12-13T07:29:30;2.90;99.90
34201;DHT22;20469;55.638;37.670;2022-12-13T07:31:57;2.80;99.90
34201;DHT22;20469;55.638;37.670;2022-12-13T07:34:28;2.80;99.90
34201;DHT22;20469;55.638;37.670;2022-12-13T07:36:56;2.80;99.90
34201;DHT22;20469;55.638;37.670;2022-12-13T07:39:25;2.80;99.90
34201;DHT22;20469;55.638;37.670;2022-12-13T07:41:54;2.70;99.90
34201;DHT22;20469;55.638;37.670;2022-12-13T07:44:23;2.70;99.90
34201;DHT22;20469;55.638;37.670;2022-12-13T07:46:51;2.70;99.90
34201;DHT22;20469;55.638;37.670;2022-12-13T07:49:19;2.80;99.90
34201;DHT22;20469;55.638;37.670;2022-12-13T07:51:46;2.90;99.90
34201;DHT22;20469;55.638;37.670;2022-12-13T07:54:15;2.90;99.90
34201;DHT22;20469;55.638;37.670;2022-12-13T07:56:44;2.80;99.90
34201;DHT22;20469;55.638;37.670;2022-12-13T07:59:16;2.80;99.90
34201;DHT22;20469;55.638;37.670;2022-12-13T08:01:55;2.80;99.90
34201;DHT22;20469;55.638;37.670;2022-12-13T08:04:23;2.70;99.90
34201;DHT22;20469;55.638;37.670;2022-12-13T08:06:54;2.80;99.90
34201;DHT22;20469;55.638;37.670;2022-12-13T08:09:25;2.80;99.90
34201;DHT22;20469;55.638;37.670;2022-12-13T08:11:58;2.70;99.90
34201;DHT22;20469;55.638;37.670;2022-12-13T08:14:29;2.80;99.90
34201;DHT22;20469;55.638;37.670;2022-12-13T08:16:59;2.80;99.90
34201;DHT22;20469;55.638;37.670;2022-12-13T08:19:28;2.80;99.90
34201;DHT22;20469;55.638;37.670;2022-12-13T08:21:59;2.70;99.90
34201;DHT22;20469;55.638;37.670;2022-12-13T08:24:31;2.80;99.90
34201;DHT22;20469;55.638;37.670;2022-12-13T08:27:03;2.80;99.90
34201;DHT22;20469;55.638;37.670;2022-12-13T08:29:33;2.80;99.90
34201;DHT22;20469;55.638;37.670;2022-12-13T08:32:07;2.80;99.90
34201;DHT22;20469;55.638;37.670;2022-12-13T08:34:40;2.60;99.90
34201;DHT22;20469;55.638;37.670;2022-12-13T08:37:11;2.80;99.90
34201;DHT22;20469;55.638;37.670;2022-12-13T08:39:40;2.70;99.90
34201;DHT22;20469;55.638;37.670;2022-12-13T08:42:12;2.70;99.90
34201;DHT22;20469;55.638;37.670;2022-12-13T08:44:50;2.80;99.90
34201;DHT22;20469;55.638;37.670;2022-12-13T08:47:19;2.70;99.90
34201;DHT22;20469;55.638;37.670;2022-12-13T08:49:52;2.70;99.90
34201;DHT22;20469;55.638;37.670;2022-12-13T08:52:21;2.80;99.90
34201;DHT22;20469;55.638;37.670;2022-12-13T08:54:50;2.70;99.90
34201;DHT22;20469;55.638;37.670;2022-12-13T08:57:17;2.80;99.90
34201;DHT22;20469;55.638;37.670;2022-12-13T08:59:45;2.80;99.90
34201;DHT22;20469;55.638;37.670;2022-12-13T09:02:13;2.70;99.90
34201;DHT22;20469;55.638;37.670;2022-12-13T09:04:42;2.70;99.90
34201;DHT22;20469;55.638;37.670;2022-12-13T09:07:09;2.60;99.90
34201;DHT22;20469;55.638;37.670;2022-12-13T09:09:37;2.70;99.90
34201;DHT22;20469;55.638;37.670;2022-12-13T09:12:04;2.70;99.90
34201;DHT22;20469;55.638;37.670;2022-12-13T09:14:52;2.60;99.90
34201;DHT22;20469;55.638;37.670;2022-12-13T09:17:31;2.70;99.90
34201;DHT22;20469;55.638;37.670;2022-12-13T09:20:06;2.40;99.90
34201;DHT22;20469;55.638;37.670;2022-12-13T09:22:54;2.40;99.90
34201;DHT22;20469;55.638;37.670;2022-12-13T09:25:29;2.20;99.90
34201;DHT22;20469;55.638;37.670;2022-12-13T09:28:05;2.20;99.90
34201;DHT22;20469;55.638;37.670;2022-12-13T09:30:34;2.20;99.90
34201;DHT22;20469;55.638;37.670;2022-12-13T09:33:03;2.10;99.90
34201;DHT22;20469;55.638;37.670;2022-12-13T09:35:51;2.00;99.90
34201;DHT22;20469;55.638;37.670;2022-12-13T09:38:19;2.00;99.90
34201;DHT22;20469;55.638;37.670;2022-12-13T09:40:48;2.00;99.90
34201;DHT22;20469;55.638;37.670;2022-12-13T09:43:29;2.00;99.90
34201;DHT22;20469;55.638;37.670;2022-12-13T09:46:19;2.00;99.90
34201;DHT22;20469;55.638;37.670;2022-12-13T09:48:52;2.10;99.90
34201;DHT22;20469;55.638;37.670;2022-12-13T09:51:30;2.10;99.90
34201;DHT22;20469;55.638;37.670;2022-12-13T09:54:17;2.10;99.90
34201;DHT22;20469;55.638;37.670;2022-12-13T09:56:46;2.10;99.90
34201;DHT22;20469;55.638;37.670;2022-12-13T09:59:20;2.10;99.90
34201;DHT22;20469;55.638;37.670;2022-12-13T10:01:50;2.20;99.90
34201;DHT22;20469;55.638;37.670;2022-12-13T10:04:17;2.20;99.90
34201;DHT22;20469;55.638;37.670;2022-12-13T10:06:45;2.20;99.90
34201;DHT22;20469;55.638;37.670;2022-12-13T10:09:13;2.20;99.90
34201;DHT22;20469;55.638;37.670;2022-12-13T10:11:51;2.30;99.90
34201;DHT22;20469;55.638;37.670;2022-12-13T10:14:26;2.20;99.90
34201;DHT22;20469;55.638;37.670;2022-12-13T10:16:59;2.20;99.90
34201;DHT22;20469;55.638;37.670;2022-12-13T10:19:39;2.20;99.90
34201;DHT22;20469;55.638;37.670;2022-12-13T10:22:11;2.20;99.90
34201;DHT22;20469;55.638;37.670;2022-12-13T10:24:51;2.20;99.90
34201;DHT22;20469;55.638;37.670;2022-12-13T10:30:19;2.10;99.90
34201;DHT22;20469;55.638;37.670;2022-12-13T10:32:58;2.20;99.90
34201;DHT22;20469;55.638;37.670;2022-12-13T10:35:35;2.20;99.90
34201;DHT22;20469;55.638;37.670;2022-12-13T10:38:26;2.20;99.90
34201;DHT22;20469;55.638;37.670;2022-12-13T10:40:58;2.10;99.90
34201;DHT22;20469;55.638;37.670;2022-12-13T10:43:29;2.00;99.90
34201;DHT22;20469;55.638;37.670;2022-12-13T10:46:00;2.00;99.90
34201;DHT22;20469;55.638;37.670;2022-12-13T10:51:22;2.00;99.90
34201;DHT22;20469;55.638;37.670;2022-12-13T10:53:56;2.00;99.90
34201;DHT22;20469;55.638;37.670;2022-12-13T10:56:35;2.00;99.90
34201;DHT22;20469;55.638;37.670;2022-12-13T10:59:22;2.10;99.90
34201;DHT22;20469;55.638;37.670;2022-12-13T11:01:53;2.10;99.90
34201;DHT22;20469;55.638;37.670;2022-12-13T11:04:27;2.10;99.90
34201;DHT22;20469;55.638;37.670;2022-12-13T11:06:57;2.00;99.90
34201;DHT22;20469;55.638;37.670;2022-12-13T11:09:29;2.10;99.90
34201;DHT22;20469;55.638;37.670;2022-12-13T11:12:14;2.10;99.90
34201;DHT22;20469;55.638;37.670;2022-12-13T11:14:58;2.00;99.90
34201;DHT22;20469;55.638;37.670;2022-12-13T11:17:29;1.90;99.90
34201;DHT22;20469;55.638;37.670;2022-12-13T11:20:06;1.90;99.90
34201;DHT22;20469;55.638;37.670;2022-12-13T11:22:41;1.90;99.90
34201;DHT22;20469;55.638;37.670;2022-12-13T11:25:25;2.00;99.90
34201;DHT22;20469;55.638;37.670;2022-12-13T11:28:24;2.00;99.90
34201;DHT22;20469;55.638;37.670;2022-12-13T11:31:13;1.80;99.90
34201;DHT22;20469;55.638;37.670;2022-12-13T11:33:55;1.80;99.90
34201;DHT22;20469;55.638;37.670;2022-12-13T11:36:36;1.70;99.90
34201;DHT22;20469;55.638;37.670;2022-12-13T11:45:11;1.70;99.90
34201;DHT22;20469;55.638;37.670;2022-12-13T11:48:16;1.70;99.90
34201;DHT22;20469;55.638;37.670;2022-12-13T11:50:49;1.80;99.90
34201;DHT22;20469;55.638;37.670;2022-12-13T11:53:29;1.70;99.90
34201;DHT22;20469;55.638;37.670;2022-12-13T11:59:02;1.70;99.90
34201;DHT22;20469;55.638;37.670;2022-12-13T12:01:57;1.70;99.90
34201;DHT22;20469;55.638;37.670;2022-12-13T12:04:38;1.60;99.90
34201;DHT22;20469;55.638;37.670;2022-12-13T12:07:13;1.50;99.90
34201;DHT22;20469;55.638;37.670;2022-12-13T12:10:23;1.50;99.90
34201;DHT22;20469;55.638;37.670;2022-12-13T12:13:03;1.40;99.90
34201;DHT22;20469;55.638;37.670;2022-12-13T12:15:37;1.50;99.90
34201;DHT22;20469;55.638;37.670;2022-12-13T12:18:13;1.60;99.90
34201;DHT22;20469;55.638;37.670;2022-12-13T12:23:49;1.40;99.90
34201;DHT22;20469;55.638;37.670;2022-12-13T12:26:26;1.40;99.90
34201;DHT22;20469;55.638;37.670;2022-12-13T12:29:20;1.30;99.90
34201;DHT22;20469;55.638;37.670;2022-12-13T12:32:02;1.40;99.90
34201;DHT22;20469;55.638;37.670;2022-12-13T12:34:52;1.20;99.90
34201;DHT22;20469;55.638;37.670;2022-12-13T12:37:31;1.20;99.90
34201;DHT22;20469;55.638;37.670;2022-12-13T12:43:30;1.70;99.90
34201;DHT22;20469;55.638;37.670;2022-12-13T12:46:23;1.50;99.90
34201;DHT22;20469;55.638;37.670;2022-12-13T12:52:01;1.40;99.90
34201;DHT22;20469;55.638;37.670;2022-12-13T12:54:53;1.60;99.90
34201;DHT22;20469;55.638;37.670;2022-12-13T12:57:51;1.60;99.90
34201;DHT22;20469;55.638;37.670;2022-12-13T13:03:28;1.70;99.90
34201;DHT22;20469;55.638;37.670;2022-12-13T13:06:13;1.70;99.90
34201;DHT22;20469;55.638;37.670;2022-12-13T13:08:55;1.40;99.90
34201;DHT22;20469;55.638;37.670;2022-12-13T13:11:28;1.60;99.90
34201;DHT22;20469;55.638;37.670;2022-12-13T13:14:23;1.40;99.90
34201;DHT22;20469;55.638;37.670;2022-12-13T13:16:47;1.40;99.90
34201;DHT22;20469;55.638;37.670;2022-12-13T13:19:39;1.40;99.90
34201;DHT22;20469;55.638;37.670;2022-12-13T13:22:27;1.70;99.90
34201;DHT22;20469;55.638;37.670;2022-12-13T13:25:16;1.40;99.90
34201;DHT22;20469;55.638;37.670;2022-12-13T13:27:48;1.60;99.90
34201;DHT22;20469;55.638;37.670;2022-12-13T13:30:22;1.70;99.90
34201;DHT22;20469;55.638;37.670;2022-12-13T13:32:52;1.50;99.90
34201;DHT22;20469;55.638;37.670;2022-12-13T13:38:54;1.40;99.90
34201;DHT22;20469;55.638;37.670;2022-12-13T13:44:53;1.20;99.90
34201;DHT22;20469;55.638;37.670;2022-12-13T13:47:34;1.20;99.90
34201;DHT22;20469;55.638;37.670;2022-12-13T13:50:22;1.10;99.90
34201;DHT22;20469;55.638;37.670;2022-12-13T13:59:17;1.50;99.90
34201;DHT22;20469;55.638;37.670;2022-12-13T14:02:05;1.30;99.90
34201;DHT22;20469;55.638;37.670;2022-12-13T14:07:51;1.30;99.90
34201;DHT22;20469;55.638;37.670;2022-12-13T14:10:42;1.20;99.90
34201;DHT22;20469;55.638;37.670;2022-12-13T14:13:54;1.20;99.90
34201;DHT22;20469;55.638;37.670;2022-12-13T14:22:38;1.40;99.90
34201;DHT22;20469;55.638;37.670;2022-12-13T14:31:17;1.80;99.90
34201;DHT22;20469;55.638;37.670;2022-12-13T14:33:53;1.60;99.90
34201;DHT22;20469;55.638;37.670;2022-12-13T14:36:31;1.60;99.90
34201;DHT22;20469;55.638;37.670;2022-12-13T14:39:15;1.50;99.90
34201;DHT22;20469;55.638;37.670;2022-12-13T14:41:55;1.60;99.90
34201;DHT22;20469;55.638;37.670;2022-12-13T14:44:27;1.80;99.90
34201;DHT22;20469;55.638;37.670;2022-12-13T14:47:05;1.90;99.90
34201;DHT22;20469;55.638;37.670;2022-12-13T14:49:40;1.70;99.90
34201;DHT22;20469;55.638;37.670;2022-12-13T14:52:32;1.50;99.90
34201;DHT22;20469;55.638;37.670;2022-12-13T14:55:06;1.70;99.90
34201;DHT22;20469;55.638;37.670;2022-12-13T14:57:37;1.80;99.90
34201;DHT22;20469;55.638;37.670;2022-12-13T15:00:29;1.80;99.90
34201;DHT22;20469;55.638;37.670;2022-12-13T15:03:01;1.80;99.90
34201;DHT22;20469;55.638;37.670;2022-12-13T15:05:37;1.70;99.90
34201;DHT22;20469;55.638;37.670;2022-12-13T15:08:16;1.80;99.90
34201;DHT22;20469;55.638;37.670;2022-12-13T15:10:47;1.60;99.90
34201;DHT22;20469;55.638;37.670;2022-12-13T15:13:33;1.70;99.90
34201;DHT22;20469;55.638;37.670;2022-12-13T15:16:06;1.80;99.90
34201;DHT22;20469;55.638;37.670;2022-12-13T15:18:37;1.60;99.90
34201;DHT22;20469;55.638;37.670;2022-12-13T15:21:24;1.90;99.90
34201;DHT22;20469;55.638;37.670;2022-12-13T15:23:51;1.70;99.90
34201;DHT22;20469;55.638;37.670;2022-12-13T15:26:22;1.60;99.90
34201;DHT22;20469;55.638;37.670;2022-12-13T15:28:59;1.50;99.90
34201;DHT22;20469;55.638;37.670;2022-12-13T15:31:37;1.70;99.90
34201;DHT22;20469;55.638;37.670;2022-12-13T15:34:21;1.40;99.90
34201;DHT22;20469;55.638;37.670;2022-12-13T15:36:59;1.60;99.90
34201;DHT22;20469;55.638;37.670;2022-12-13T15:39:27;1.70;99.90
34201;DHT22;20469;55.638;37.670;2022-12-13T15:41:58;1.80;99.90
34201;DHT22;20469;55.638;37.670;2022-12-13T15:44:30;1.70;99.90
34201;DHT22;20469;55.638;37.670;2022-12-13T15:47:06;1.70;99.90
34201;DHT22;20469;55.638;37.670;2022-12-13T15:49:39;1.80;99.90
34201;DHT22;20469;55.638;37.670;2022-12-13T15:52:29;1.60;99.90
34201;DHT22;20469;55.638;37.670;2022-12-13T15:57:51;1.70;99.90
34201;DHT22;20469;55.638;37.670;2022-12-13T16:00:29;1.80;99.90
34201;DHT22;20469;55.638;37.670;2022-12-13T16:05:50;1.60;99.90
34201;DHT22;20469;55.638;37.670;2022-12-13T16:08:36;1.50;99.90
34201;DHT22;20469;55.638;37.670;2022-12-13T16:11:05;1.30;99.90
34201;DHT22;20469;55.638;37.670;2022-12-13T16:13:35;1.30;99.90
34201;DHT22;20469;55.638;37.670;2022-12-13T16:16:24;1.40;99.90
34201;DHT22;20469;55.638;37.670;2022-12-13T16:18:57;1.50;99.90
34201;DHT22;20469;55.638;37.670;2022-12-13T16:21:43;1.40;99.90
34201;DHT22;20469;55.638;37.670;2022-12-13T16:24:11;1.40;99.90
34201;DHT22;20469;55.638;37.670;2022-12-13T16:26:43;0.60;99.90
34201;DHT22;20469;55.638;37.670;2022-12-13T16:29:14;1.30;99.90
34201;DHT22;20469;55.638;37.670;2022-12-13T16:31:43;1.30;99.90
34201;DHT22;20469;55.638;37.670;2022-12-13T16:34:27;1.20;99.90
34201;DHT22;20469;55.638;37.670;2022-12-13T16:36:56;1.20;99.90
34201;DHT22;20469;55.638;37.670;2022-12-13T16:39:25;1.30;99.90
34201;DHT22;20469;55.638;37.670;2022-12-13T16:41:53;1.30;99.90
34201;DHT22;20469;55.638;37.670;2022-12-13T16:44:25;1.10;99.90
34201;DHT22;20469;55.638;37.670;2022-12-13T16:46:55;1.00;99.90
34201;DHT22;20469;55.638;37.670;2022-12-13T16:49:42;1.00;99.90
34201;DHT22;20469;55.638;37.670;2022-12-13T16:52:10;1.00;99.90
34201;DHT22;20469;55.638;37.670;2022-12-13T16:54:37;1.00;99.90
34201;DHT22;20469;55.638;37.670;2022-12-13T16:57:05;1.10;99.90
34201;DHT22;20469;55.638;37.670;2022-12-13T16:59:33;1.10;99.90
34201;DHT22;20469;55.638;37.670;2022-12-13T17:02:02;1.10;99.90
34201;DHT22;20469;55.638;37.670;2022-12-13T17:04:30;1.00;99.90
34201;DHT22;20469;55.638;37.670;2022-12-13T17:06:58;0.90;99.90
34201;DHT22;20469;55.638;37.670;2022-12-13T17:09:25;0.90;99.90
34201;DHT22;20469;55.638;37.670;2022-12-13T17:11:53;1.20;99.90
34201;DHT22;20469;55.638;37.670;2022-12-13T17:14:21;1.10;99.90
34201;DHT22;20469;55.638;37.670;2022-12-13T17:16:52;1.40;99.90
34201;DHT22;20469;55.638;37.670;2022-12-13T17:19:21;1.20;99.90
34201;DHT22;20469;55.638;37.670;2022-12-13T17:21:49;1.30;99.90
34201;DHT22;20469;55.638;37.670;2022-12-13T17:24:17;1.20;99.90
34201;DHT22;20469;55.638;37.670;2022-12-13T17:26:44;1.20;99.90
34201;DHT22;20469;55.638;37.670;2022-12-13T17:29:23;1.10;99.90
34201;DHT22;20469;55.638;37.670;2022-12-13T17:31:50;1.20;99.90
34201;DHT22;20469;55.638;37.670;2022-12-13T17:34:19;1.30;99.90
34201;DHT22;20469;55.638;37.670;2022-12-13T17:36:46;1.30;99.90
34201;DHT22;20469;55.638;37.670;2022-12-13T17:39:14;1.10;99.90
34201;DHT22;20469;55.638;37.670;2022-12-13T17:41:41;1.20;99.90
34201;DHT22;20469;55.638;37.670;2022-12-13T17:44:23;1.10;99.90